sensor_id;sensor_type;location;lat;lon;timestamp;temperature;humidity
24091;DHT22;12272;52.426;17.100;2024-03-17T00:01:15;13.60;99.90
24091;DHT22;12272;52.426;17.100;2024-03-17T00:06:18;14.10;99.90
24091;DHT22;12272;52.426;17.100;2024-03-17T00:11:19;13.90;99.90
24091;DHT22;12272;52.426;17.100;2024-03-17T00:16:21;13.50;99.90
24091;DHT22;12272;52.426;17.100;2024-03-17T00:21:22;14.30;99.90
24091;DHT22;12272;52.426;17.100;2024-03-17T00:26:24;13.70;99.90
24091;DHT22;12272;52.426;17.100;2024-03-17T00:31:26;13.50;99.90
24091;DHT22;12272;52.426;17.100;2024-03-17T00:36:27;13.80;99.90
24091;DHT22;12272;52.426;17.100;2024-03-17T00:41:29;13.60;99.90
24091;DHT22;12272;52.426;17.100;2024-03-17T00:46:30;13.10;99.90
24091;DHT22;12272;52.426;17.100;2024-03-17T00:51:32;12.80;99.90
24091;DHT22;12272;52.426;17.100;2024-03-17T00:56:33;12.20;99.90
24091;DHT22;12272;52.426;17.100;2024-03-17T01:01:35;12.40;99.90
24091;DHT22;12272;52.426;17.100;2024-03-17T01:06:37;11.90;99.90
24091;DHT22;12272;52.426;17.100;2024-03-17T01:11:41;11.80;99.90
24091;DHT22;12272;52.426;17.100;2024-03-17T01:16:43;12.20;99.90
24091;DHT22;12272;52.426;17.100;2024-03-17T01:21:45;13.10;99.90
24091;DHT22;12272;52.426;17.100;2024-03-17T01:26:46;13.30;99.90
24091;DHT22;12272;52.426;17.100;2024-03-17T01:31:48;13.20;99.90
24091;DHT22;12272;52.426;17.100;2024-03-17T01:36:49;13.30;99.90
24091;DHT22;12272;52.426;17.100;2024-03-17T01:41:51;13.50;99.90
24091;DHT22;12272;52.426;17.100;2024-03-17T01:46:56;13.30;99.90
24091;DHT22;12272;52.426;17.100;2024-03-17T01:51:58;14.20;99.90
24091;DHT22;12272;52.426;17.100;2024-03-17T01:56:59;14.60;99.90
24091;DHT22;12272;52.426;17.100;2024-03-17T02:02:02;13.90;99.90
24091;DHT22;12272;52.426;17.100;2024-03-17T02:07:03;14.10;99.90
24091;DHT22;12272;52.426;17.100;2024-03-17T02:12:05;13.90;99.90
24091;DHT22;12272;52.426;17.100;2024-03-17T02:17:06;14.10;99.90
24091;DHT22;12272;52.426;17.100;2024-03-17T02:22:13;14.00;99.90
24091;DHT22;12272;52.426;17.100;2024-03-17T02:27:16;14.40;99.90
24091;DHT22;12272;52.426;17.100;2024-03-17T02:32:18;13.80;99.90
24091;DHT22;12272;52.426;17.100;2024-03-17T02:37:20;14.10;99.90
24091;DHT22;12272;52.426;17.100;2024-03-17T02:42:23;14.20;99.90
24091;DHT22;12272;52.426;17.100;2024-03-17T02:47:24;14.60;99.90
24091;DHT22;12272;52.426;17.100;2024-03-17T02:52:27;14.70;99.90
24091;DHT22;12272;52.426;17.100;2024-03-17T02:57:28;14.90;99.90
24091;DHT22;12272;52.426;17.100;2024-03-17T03:02:33;14.60;99.90
24091;DHT22;12272;52.426;17.100;2024-03-17T03:07:35;14.40;99.90
24091;DHT22;12272;52.426;17.100;2024-03-17T03:12:37;14.40;99.90
24091;DHT22;12272;52.426;17.100;2024-03-17T03:17:38;14.70;99.90
24091;DHT22;12272;52.426;17.100;2024-03-17T03:22:40;14.60;99.90
24091;DHT22;12272;52.426;17.100;2024-03-17T03:27:42;14.10;99.90
24091;DHT22;12272;52.426;17.100;2024-03-17T03:32:44;14.10;99.90
24091;DHT22;12272;52.426;17.100;2024-03-17T03:37:46;14.20;99.90
24091;DHT22;12272;52.426;17.100;2024-03-17T03:42:48;13.90;99.90
24091;DHT22;12272;52.426;17.100;2024-03-17T03:47:50;14.20;99.90
24091;DHT22;12272;52.426;17.100;2024-03-17T03:52:51;14.10;99.90
24091;DHT22;12272;52.426;17.100;2024-03-17T03:57:53;14.50;99.90
24091;DHT22;12272;52.426;17.100;2024-03-17T04:02:54;14.50;99.90
24091;DHT22;12272;52.426;17.100;2024-03-17T04:07:56;14.90;99.90
24091;DHT22;12272;52.426;17.100;2024-03-17T04:12:57;15.00;99.90
24091;DHT22;12272;52.426;17.100;2024-03-17T04:17:59;15.00;99.90
24091;DHT22;12272;52.426;17.100;2024-03-17T04:23:00;15.30;99.90
24091;DHT22;12272;52.426;17.100;2024-03-17T04:28:02;15.00;99.90
24091;DHT22;12272;52.426;17.100;2024-03-17T04:33:04;14.70;99.90
24091;DHT22;12272;52.426;17.100;2024-03-17T04:38:08;15.00;99.90
24091;DHT22;12272;52.426;17.100;2024-03-17T04:43:10;15.10;99.90
24091;DHT22;12272;52.426;17.100;2024-03-17T04:48:12;15.40;99.90
24091;DHT22;12272;52.426;17.100;2024-03-17T04:53:13;15.20;99.90
24091;DHT22;12272;52.426;17.100;2024-03-17T04:58:15;15.20;99.90
24091;DHT22;12272;52.426;17.100;2024-03-17T05:03:16;15.40;99.90
24091;DHT22;12272;52.426;17.100;2024-03-17T05:08:18;15.10;99.90
24091;DHT22;12272;52.426;17.100;2024-03-17T05:13:19;15.30;99.90
24091;DHT22;12272;52.426;17.100;2024-03-17T05:18:21;15.10;99.90
24091;DHT22;12272;52.426;17.100;2024-03-17T05:23:28;14.00;99.90
24091;DHT22;12272;52.426;17.100;2024-03-17T05:28:30;13.80;99.90
24091;DHT22;12272;52.426;17.100;2024-03-17T05:33:32;14.80;99.90
24091;DHT22;12272;52.426;17.100;2024-03-17T05:38:34;14.70;99.90
24091;DHT22;12272;52.426;17.100;2024-03-17T05:43:36;14.70;99.90
24091;DHT22;12272;52.426;17.100;2024-03-17T05:48:39;14.50;99.90
24091;DHT22;12272;52.426;17.100;2024-03-17T05:53:41;14.50;99.90
24091;DHT22;12272;52.426;17.100;2024-03-17T05:58:45;14.60;99.90
24091;DHT22;12272;52.426;17.100;2024-03-17T06:03:48;15.20;99.90
24091;DHT22;12272;52.426;17.100;2024-03-17T06:08:49;15.40;99.90
24091;DHT22;12272;52.426;17.100;2024-03-17T06:13:52;14.20;99.90
24091;DHT22;12272;52.426;17.100;2024-03-17T06:18:54;14.80;99.90
24091;DHT22;12272;52.426;17.100;2024-03-17T06:23:55;14.90;99.90
24091;DHT22;12272;52.426;17.100;2024-03-17T06:28:58;15.20;99.90
24091;DHT22;12272;52.426;17.100;2024-03-17T06:33:59;15.10;99.90
24091;DHT22;12272;52.426;17.100;2024-03-17T06:39:01;14.50;99.90
24091;DHT22;12272;52.426;17.100;2024-03-17T06:44:02;13.90;99.90
24091;DHT22;12272;52.426;17.100;2024-03-17T06:49:04;14.00;99.90
24091;DHT22;12272;52.426;17.100;2024-03-17T06:54:05;14.80;99.90
24091;DHT22;12272;52.426;17.100;2024-03-17T06:59:07;14.70;99.90
24091;DHT22;12272;52.426;17.100;2024-03-17T07:04:08;14.30;99.90
24091;DHT22;12272;52.426;17.100;2024-03-17T07:09:10;13.50;99.90
24091;DHT22;12272;52.426;17.100;2024-03-17T07:14:11;10.30;99.90
24091;DHT22;12272;52.426;17.100;2024-03-17T07:19:13;8.60;99.90
24091;DHT22;12272;52.426;17.100;2024-03-17T07:29:16;9.00;99.90
24091;DHT22;12272;52.426;17.100;2024-03-17T07:34:18;9.30;99.90
24091;DHT22;12272;52.426;17.100;2024-03-17T07:39:20;9.60;99.90
24091;DHT22;12272;52.426;17.100;2024-03-17T07:44:21;8.90;99.90
24091;DHT22;12272;52.426;17.100;2024-03-17T07:49:24;8.80;99.90
24091;DHT22;12272;52.426;17.100;2024-03-17T07:54:26;8.80;99.90
24091;DHT22;12272;52.426;17.100;2024-03-17T07:59:30;8.90;99.90
24091;DHT22;12272;52.426;17.100;2024-03-17T08:04:32;10.20;99.90
24091;DHT22;12272;52.426;17.100;2024-03-17T08:09:33;10.20;99.90
24091;DHT22;12272;52.426;17.100;2024-03-17T08:14:35;11.00;99.90
24091;DHT22;12272;52.426;17.100;2024-03-17T08:19:36;11.10;99.90
24091;DHT22;12272;52.426;17.100;2024-03-17T08:24:40;11.50;99.90
24091;DHT22;12272;52.426;17.100;2024-03-17T08:29:41;12.70;99.90
24091;DHT22;12272;52.426;17.100;2024-03-17T08:34:47;13.80;99.90
24091;DHT22;12272;52.426;17.100;2024-03-17T08:39:49;14.20;99.90
24091;DHT22;12272;52.426;17.100;2024-03-17T08:44:51;14.20;99.90
24091;DHT22;12272;52.426;17.100;2024-03-17T08:49:52;13.50;99.90
24091;DHT22;12272;52.426;17.100;2024-03-17T08:54:53;13.60;99.90
24091;DHT22;12272;52.426;17.100;2024-03-17T08:59:55;12.10;99.90
24091;DHT22;12272;52.426;17.100;2024-03-17T09:04:57;12.80;99.90
24091;DHT22;12272;52.426;17.100;2024-03-17T09:10:00;12.10;99.90
24091;DHT22;12272;52.426;17.100;2024-03-17T09:15:01;10.40;99.90
24091;DHT22;12272;52.426;17.100;2024-03-17T09:25:07;9.50;99.90
24091;DHT22;12272;52.426;17.100;2024-03-17T09:35:11;8.90;99.90
24091;DHT22;12272;52.426;17.100;2024-03-17T09:40:16;9.50;99.90
24091;DHT22;12272;52.426;17.100;2024-03-17T09:45:18;11.50;99.90
24091;DHT22;12272;52.426;17.100;2024-03-17T09:50:19;12.80;99.90
24091;DHT22;12272;52.426;17.100;2024-03-17T09:55:21;12.50;99.90
24091;DHT22;12272;52.426;17.100;2024-03-17T10:00:23;14.60;99.90
24091;DHT22;12272;52.426;17.100;2024-03-17T10:05:27;15.30;99.90
24091;DHT22;12272;52.426;17.100;2024-03-17T10:10:29;15.30;99.90
24091;DHT22;12272;52.426;17.100;2024-03-17T10:15:31;14.00;99.90
24091;DHT22;12272;52.426;17.100;2024-03-17T10:20:32;12.10;99.90
24091;DHT22;12272;52.426;17.100;2024-03-17T10:25:39;12.20;99.90
24091;DHT22;12272;52.426;17.100;2024-03-17T10:30:41;11.40;99.90
24091;DHT22;12272;52.426;17.100;2024-03-17T10:35:43;14.40;99.90
24091;DHT22;12272;52.426;17.100;2024-03-17T10:40:45;9.90;99.90
24091;DHT22;12272;52.426;17.100;2024-03-17T10:45:47;10.30;99.90
24091;DHT22;12272;52.426;17.100;2024-03-17T10:50:49;12.50;99.90
24091;DHT22;12272;52.426;17.100;2024-03-17T10:56:04;12.00;99.90
24091;DHT22;12272;52.426;17.100;2024-03-17T11:01:11;12.80;99.90
24091;DHT22;12272;52.426;17.100;2024-03-17T11:06:13;13.80;99.90
24091;DHT22;12272;52.426;17.100;2024-03-17T11:11:35;12.40;99.90
24091;DHT22;12272;52.426;17.100;2024-03-17T11:16:37;13.20;99.90
24091;DHT22;12272;52.426;17.100;2024-03-17T11:21:38;13.10;99.90
24091;DHT22;12272;52.426;17.100;2024-03-17T11:26:40;13.10;99.90
24091;DHT22;12272;52.426;17.100;2024-03-17T11:31:44;13.40;99.90
24091;DHT22;12272;52.426;17.100;2024-03-17T11:36:46;13.20;99.90
24091;DHT22;12272;52.426;17.100;2024-03-17T11:41:48;13.30;99.90
24091;DHT22;12272;52.426;17.100;2024-03-17T11:46:57;13.20;99.90
24091;DHT22;12272;52.426;17.100;2024-03-17T11:52:01;13.10;99.90
24091;DHT22;12272;52.426;17.100;2024-03-17T11:57:06;13.40;99.90
24091;DHT22;12272;52.426;17.100;2024-03-17T12:02:22;13.10;99.90
24091;DHT22;12272;52.426;17.100;2024-03-17T12:07:24;13.00;99.90
24091;DHT22;12272;52.426;17.100;2024-03-17T12:12:27;13.20;99.90
24091;DHT22;12272;52.426;17.100;2024-03-17T12:17:39;13.10;99.90
24091;DHT22;12272;52.426;17.100;2024-03-17T12:22:40;12.20;99.90
24091;DHT22;12272;52.426;17.100;2024-03-17T12:27:45;12.90;99.90
24091;DHT22;12272;52.426;17.100;2024-03-17T12:32:48;12.70;99.90
24091;DHT22;12272;52.426;17.100;2024-03-17T12:37:51;9.90;99.90
24091;DHT22;12272;52.426;17.100;2024-03-17T12:42:53;9.10;99.90
24091;DHT22;12272;52.426;17.100;2024-03-17T12:47:54;8.00;99.90
24091;DHT22;12272;52.426;17.100;2024-03-17T12:52:56;7.80;99.90
24091;DHT22;12272;52.426;17.100;2024-03-17T13:03:26;6.10;99.90
24091;DHT22;12272;52.426;17.100;2024-03-17T13:08:28;5.80;99.90
24091;DHT22;12272;52.426;17.100;2024-03-17T13:13:30;5.50;99.90
24091;DHT22;12272;52.426;17.100;2024-03-17T13:18:32;5.10;99.90
24091;DHT22;12272;52.426;17.100;2024-03-17T13:23:34;4.90;99.90
24091;DHT22;12272;52.426;17.100;2024-03-17T13:28:35;4.80;99.90
24091;DHT22;12272;52.426;17.100;2024-03-17T13:33:37;4.80;99.90
24091;DHT22;12272;52.426;17.100;2024-03-17T13:38:40;9.70;99.90
24091;DHT22;12272;52.426;17.100;2024-03-17T13:43:48;10.40;99.90
24091;DHT22;12272;52.426;17.100;2024-03-17T13:48:52;10.30;99.90
24091;DHT22;12272;52.426;17.100;2024-03-17T13:53:58;11.00;99.90
24091;DHT22;12272;52.426;17.100;2024-03-17T13:59:00;11.00;99.90
24091;DHT22;12272;52.426;17.100;2024-03-17T14:04:02;10.60;99.90
24091;DHT22;12272;52.426;17.100;2024-03-17T14:09:03;9.70;99.90
24091;DHT22;12272;52.426;17.100;2024-03-17T14:14:05;10.10;99.90
24091;DHT22;12272;52.426;17.100;2024-03-17T14:19:07;9.90;99.90
24091;DHT22;12272;52.426;17.100;2024-03-17T14:24:08;10.90;99.90
24091;DHT22;12272;52.426;17.100;2024-03-17T14:29:11;10.10;99.90
24091;DHT22;12272;52.426;17.100;2024-03-17T23:02:11;4.00;99.90
24091;DHT22;12272;52.426;17.100;2024-03-17T23:07:13;3.90;99.90
24091;DHT22;12272;52.426;17.100;2024-03-17T23:12:14;4.10;99.90
24091;DHT22;12272;52.426;17.100;2024-03-17T23:17:16;3.90;99.90
24091;DHT22;12272;52.426;17.100;2024-03-17T23:22:18;3.70;99.90
24091;DHT22;12272;52.426;17.100;2024-03-17T23:27:19;3.60;99.90
24091;DHT22;12272;52.426;17.100;2024-03-17T23:32:21;3.70;99.90
24091;DHT22;12272;52.426;17.100;2024-03-17T23:37:22;3.80;99.90
24091;DHT22;12272;52.426;17.100;2024-03-17T23:42:24;3.80;99.90
24091;DHT22;12272;52.426;17.100;2024-03-17T23:47:26;3.50;99.90
24091;DHT22;12272;52.426;17.100;2024-03-17T23:52:27;3.00;99.90
24091;DHT22;12272;52.426;17.100;2024-03-17T23:57:29;2.40;99.90
